createdAt,value
2023-01-20T00:00:14.342Z,11.90
2023-01-20T00:01:13.318Z,11.50
2023-01-20T00:02:13.329Z,11.50
2023-01-20T00:03:13.305Z,11.20
2023-01-20T00:04:13.257Z,11.30
2023-01-20T00:05:13.485Z,11.70
2023-01-20T00:06:13.220Z,11.20
2023-01-20T00:07:13.201Z,11.10
2023-01-20T00:08:13.215Z,11.10
2023-01-20T00:09:13.161Z,11.40
2023-01-20T00:10:13.140Z,11.50
2023-01-20T00:11:13.116Z,10.80
2023-01-20T00:12:13.100Z,10.80
2023-01-20T00:13:13.106Z,10.80
2023-01-20T00:14:13.072Z,10.70
2023-01-20T00:15:13.238Z,11.10
2023-01-20T00:16:13.140Z,11.60
2023-01-20T00:17:13.004Z,11.10
2023-01-20T00:18:13.016Z,11.10
2023-01-20T00:19:12.971Z,11.30
2023-01-20T00:20:12.950Z,10.60
2023-01-20T00:21:12.934Z,11.40
2023-01-20T00:22:12.908Z,11.30
2023-01-20T00:23:12.917Z,11.20
2023-01-20T00:24:12.889Z,10.50
2023-01-20T00:25:13.327Z,10.90
2023-01-20T00:26:12.861Z,11.20
2023-01-20T00:27:12.811Z,11.00
2023-01-20T00:28:12.784Z,11.20
2023-01-20T00:29:12.770Z,11.40
2023-01-20T00:30:12.750Z,11.80
2023-01-20T00:31:12.778Z,10.80
2023-01-20T00:32:12.712Z,11.50
2023-01-20T00:33:12.713Z,11.70
2023-01-20T00:34:12.665Z,11.00
2023-01-20T00:35:12.953Z,11.00
2023-01-20T00:36:12.632Z,11.40
2023-01-20T00:37:12.616Z,11.60
2023-01-20T00:38:12.621Z,12.10
2023-01-20T00:39:12.576Z,11.90
2023-01-20T00:40:12.553Z,12.10
2023-01-20T00:41:12.546Z,11.40
2023-01-20T00:42:12.515Z,11.60
2023-01-20T00:43:12.530Z,12.00
2023-01-20T00:44:12.474Z,11.80
2023-01-20T00:45:12.776Z,12.20
2023-01-20T00:46:12.481Z,11.90
2023-01-20T00:47:12.418Z,11.50
2023-01-20T00:48:12.427Z,12.20
2023-01-20T00:49:12.381Z,11.50
2023-01-20T00:50:12.367Z,11.40
2023-01-20T00:51:12.337Z,12.10
2023-01-20T00:52:12.323Z,12.00
2023-01-20T00:53:12.328Z,12.00
2023-01-20T00:54:12.291Z,11.90
2023-01-20T00:55:12.663Z,12.20
2023-01-20T00:56:12.242Z,11.70
2023-01-20T00:57:12.226Z,12.30
2023-01-20T00:58:12.226Z,12.20
2023-01-20T00:59:12.195Z,11.70
2023-01-20T01:00:12.171Z,11.20
2023-01-20T01:01:12.196Z,11.80
2023-01-20T01:02:12.172Z,11.40
2023-01-20T01:03:12.133Z,11.60
2023-01-20T01:04:12.084Z,11.50
2023-01-20T01:05:12.399Z,11.60
2023-01-20T01:06:12.043Z,10.90
2023-01-20T01:07:12.029Z,10.60
2023-01-20T01:08:12.030Z,10.90
2023-01-20T01:09:11.987Z,11.20
2023-01-20T01:10:11.967Z,10.70
2023-01-20T01:11:11.951Z,11.50
2023-01-20T01:12:11.931Z,10.60
2023-01-20T01:13:11.932Z,11.20
2023-01-20T01:14:11.890Z,11.30
2023-01-20T01:15:12.154Z,10.70
2023-01-20T01:16:11.888Z,10.90
2023-01-20T01:17:11.827Z,11.00
2023-01-20T01:18:11.841Z,10.80
2023-01-20T01:19:11.793Z,11.10
2023-01-20T01:20:11.787Z,10.70
2023-01-20T01:21:11.763Z,11.60
2023-01-20T01:22:11.742Z,11.30
2023-01-20T01:23:11.726Z,11.30
2023-01-20T01:24:11.730Z,11.20
2023-01-20T01:25:11.940Z,11.30
2023-01-20T01:26:11.687Z,11.30
2023-01-20T01:27:11.646Z,11.00
2023-01-20T01:28:11.628Z,10.90
2023-01-20T01:29:11.637Z,11.20
2023-01-20T01:30:11.591Z,11.00
2023-01-20T01:31:11.624Z,11.30
2023-01-20T01:32:11.553Z,10.90
2023-01-20T01:33:11.537Z,11.30
2023-01-20T01:34:11.560Z,11.20
2023-01-20T01:35:12.004Z,11.80
2023-01-20T01:36:11.477Z,11.00
2023-01-20T01:37:11.465Z,11.10
2023-01-20T01:38:11.440Z,10.90
2023-01-20T01:39:11.448Z,11.00
2023-01-20T01:40:11.410Z,10.90
2023-01-20T01:41:11.384Z,10.50
2023-01-20T01:42:11.363Z,10.30
2023-01-20T01:43:11.344Z,10.50
2023-01-20T01:44:11.352Z,10.30
2023-01-20T01:45:11.895Z,10.10
2023-01-20T01:46:11.287Z,10.10
2023-01-20T01:47:11.271Z,9.60
2023-01-20T01:48:11.250Z,10.00
2023-01-20T01:49:11.263Z,10.10
2023-01-20T01:50:11.213Z,10.20
2023-01-20T01:51:11.201Z,10.20
2023-01-20T01:52:11.180Z,10.50
2023-01-20T01:53:11.163Z,9.80
2023-01-20T01:54:11.163Z,9.90
2023-01-20T01:55:11.601Z,10.20
2023-01-20T01:56:11.097Z,10.50
2023-01-20T01:57:11.093Z,9.80
2023-01-20T01:58:11.060Z,10.20
2023-01-20T01:59:11.095Z,9.50
2023-01-20T02:00:11.024Z,9.90
2023-01-20T02:01:11.114Z,10.60
2023-01-20T02:02:11.003Z,10.10
2023-01-20T02:03:10.967Z,10.30
2023-01-20T02:04:10.976Z,9.90
2023-01-20T02:05:10.932Z,9.60
2023-01-20T02:06:10.920Z,10.40
2023-01-20T02:07:10.894Z,9.70
2023-01-20T02:08:10.867Z,9.80
2023-01-20T02:09:11.881Z,10.00
2023-01-20T02:10:10.836Z,10.30
2023-01-20T02:11:10.827Z,10.30
2023-01-20T02:12:10.828Z,10.20
2023-01-20T02:13:10.798Z,9.70
2023-01-20T02:14:10.786Z,10.30
2023-01-20T02:15:10.746Z,10.10
2023-01-20T02:16:10.804Z,10.60
2023-01-20T02:17:10.727Z,11.50
2023-01-20T02:18:10.691Z,11.10
2023-01-20T02:19:10.695Z,11.40
2023-01-20T02:20:10.649Z,11.00
2023-01-20T02:21:11.637Z,11.80
2023-01-20T02:22:10.615Z,12.00
2023-01-20T02:23:10.612Z,12.30
2023-01-20T02:24:10.603Z,12.30
2023-01-20T02:25:10.579Z,11.60
2023-01-20T02:26:10.549Z,12.20
2023-01-20T02:27:10.524Z,12.60
2023-01-20T02:28:10.495Z,12.40
2023-01-20T02:29:11.508Z,12.50
2023-01-20T02:30:10.472Z,12.40
2023-01-20T02:31:10.449Z,12.30
2023-01-20T02:32:10.423Z,12.70
2023-01-20T02:33:10.409Z,12.50
2023-01-20T02:34:10.416Z,12.80
2023-01-20T02:35:10.369Z,13.00
2023-01-20T02:36:10.349Z,12.50
2023-01-20T02:37:11.330Z,13.30
2023-01-20T02:38:10.310Z,12.90
2023-01-20T02:39:10.343Z,13.40
2023-01-20T02:40:10.274Z,13.60
2023-01-20T02:41:10.261Z,13.20
2023-01-20T02:42:10.238Z,13.00
2023-01-20T02:43:10.215Z,12.40
2023-01-20T02:44:10.227Z,12.50
2023-01-20T02:45:10.192Z,13.30
2023-01-20T02:46:10.165Z,12.50
2023-01-20T02:47:10.152Z,12.80
2023-01-20T02:48:10.129Z,12.70
2023-01-20T02:49:10.131Z,12.80
2023-01-20T02:50:10.098Z,12.70
2023-01-20T02:51:10.073Z,13.10
2023-01-20T02:52:10.045Z,13.10
2023-01-20T02:53:10.028Z,13.30
2023-01-20T02:54:10.048Z,12.60
2023-01-20T02:55:09.989Z,12.80
2023-01-20T02:56:09.981Z,13.20
2023-01-20T02:57:09.951Z,12.60
2023-01-20T02:58:09.930Z,12.90
2023-01-20T02:59:09.942Z,12.90
2023-01-20T03:00:09.897Z,12.30
2023-01-20T03:01:09.939Z,12.90
2023-01-20T03:02:09.868Z,12.40
2023-01-20T03:03:09.844Z,12.90
2023-01-20T03:04:09.895Z,12.30
2023-01-20T03:05:09.799Z,13.30
2023-01-20T03:06:09.788Z,12.90
2023-01-20T03:07:09.767Z,12.50
2023-01-20T03:08:09.752Z,12.70
2023-01-20T03:09:09.788Z,12.70
2023-01-20T03:10:09.709Z,12.30
2023-01-20T03:11:09.689Z,12.80
2023-01-20T03:12:09.673Z,12.70
2023-01-20T03:13:09.663Z,12.80
2023-01-20T03:14:09.660Z,12.30
2023-01-20T03:15:09.609Z,12.50
2023-01-20T03:16:09.595Z,12.30
2023-01-20T03:17:09.578Z,11.90
2023-01-20T03:18:09.565Z,11.70
2023-01-20T03:19:09.567Z,11.20
2023-01-20T03:20:09.565Z,10.90
2023-01-20T03:21:09.514Z,10.60
2023-01-20T03:22:09.496Z,11.40
2023-01-20T03:23:09.465Z,11.50
2023-01-20T03:24:09.474Z,11.10
2023-01-20T03:25:09.422Z,10.90
2023-01-20T03:26:09.416Z,10.80
2023-01-20T03:27:09.394Z,11.50
2023-01-20T03:28:09.372Z,11.20
2023-01-20T03:29:09.378Z,10.50
2023-01-20T03:30:09.329Z,11.00
2023-01-20T03:31:09.405Z,10.90
2023-01-20T03:32:09.298Z,10.60
2023-01-20T03:33:09.282Z,10.50
2023-01-20T03:34:09.282Z,10.70
2023-01-20T03:35:09.257Z,10.70
2023-01-20T03:36:09.218Z,10.50
2023-01-20T03:37:09.196Z,11.00
2023-01-20T03:38:09.178Z,10.60
2023-01-20T03:39:09.187Z,10.40
2023-01-20T03:40:09.152Z,10.20
2023-01-20T03:41:09.119Z,10.80
2023-01-20T03:42:09.129Z,10.60
2023-01-20T03:43:09.078Z,10.50
2023-01-20T03:44:09.085Z,10.10
2023-01-20T03:45:09.039Z,9.80
2023-01-20T03:46:09.047Z,10.40
2023-01-20T03:47:09.004Z,10.00
2023-01-20T03:48:08.990Z,10.00
2023-01-20T03:49:09.000Z,10.50
2023-01-20T03:50:08.947Z,10.10
2023-01-20T03:51:08.925Z,10.00
2023-01-20T03:52:08.902Z,10.60
2023-01-20T03:53:08.888Z,10.60
2023-01-20T03:54:08.888Z,10.80
2023-01-20T03:55:08.875Z,10.70
2023-01-20T03:56:08.826Z,11.10
2023-01-20T03:57:08.802Z,10.80
2023-01-20T03:58:08.796Z,11.30
2023-01-20T03:59:08.795Z,11.30
2023-01-20T04:00:08.776Z,10.50
2023-01-20T04:01:17.901Z,11.40
2023-01-20T04:02:09.809Z,11.80
2023-01-20T04:03:08.743Z,10.90
2023-01-20T04:04:08.674Z,11.70
2023-01-20T04:05:08.680Z,11.70
2023-01-20T04:06:08.635Z,11.90
2023-01-20T04:07:08.624Z,11.50
2023-01-20T04:08:08.599Z,12.40
2023-01-20T04:09:08.579Z,12.20
2023-01-20T04:10:08.589Z,12.20
2023-01-20T04:11:08.544Z,12.90
2023-01-20T04:12:08.522Z,12.60
2023-01-20T04:13:08.503Z,12.70
2023-01-20T04:14:08.486Z,12.30
2023-01-20T04:15:08.487Z,12.80
2023-01-20T04:16:08.466Z,13.20
2023-01-20T04:17:08.423Z,13.00
2023-01-20T04:18:08.400Z,12.80
2023-01-20T04:19:08.389Z,13.10
2023-01-20T04:20:08.406Z,12.40
2023-01-20T04:21:08.343Z,12.50
2023-01-20T04:22:08.329Z,12.60
2023-01-20T04:23:08.315Z,13.20
2023-01-20T04:24:08.296Z,12.80
2023-01-20T04:25:08.298Z,12.60
2023-01-20T04:26:08.268Z,12.90
2023-01-20T04:27:08.238Z,13.20
2023-01-20T04:28:08.215Z,13.20
2023-01-20T04:29:10.394Z,13.60
2023-01-20T04:30:08.208Z,13.30
2023-01-20T04:31:15.462Z,13.20
2023-01-20T04:32:09.213Z,12.90
2023-01-20T04:33:08.123Z,12.60
2023-01-20T04:34:08.102Z,13.20
2023-01-20T04:35:08.103Z,12.60
2023-01-20T04:36:09.066Z,12.00
2023-01-20T04:37:08.044Z,11.60
2023-01-20T04:38:08.031Z,11.00
2023-01-20T04:39:08.007Z,12.10
2023-01-20T04:40:08.012Z,12.20
2023-01-20T04:41:07.969Z,13.80
2023-01-20T04:42:07.946Z,13.70
2023-01-20T04:43:07.924Z,13.50
2023-01-20T04:44:07.905Z,13.70
2023-01-20T04:45:07.908Z,13.90
2023-01-20T04:46:07.893Z,13.20
2023-01-20T04:47:07.849Z,13.50
2023-01-20T04:48:07.840Z,13.70
2023-01-20T04:49:07.816Z,14.20
2023-01-20T04:50:07.815Z,14.50
2023-01-20T04:51:07.776Z,14.30
2023-01-20T04:52:07.754Z,14.20
2023-01-20T04:53:07.734Z,14.80
2023-01-20T04:54:07.715Z,14.10
2023-01-20T04:55:07.728Z,15.20
2023-01-20T04:56:07.677Z,15.60
2023-01-20T04:57:07.664Z,14.90
2023-01-20T04:58:07.631Z,15.50
2023-01-20T04:59:07.612Z,17.10
2023-01-20T05:00:07.623Z,18.20
2023-01-20T05:01:07.657Z,17.80
2023-01-20T05:02:07.590Z,18.10
2023-01-20T05:03:07.579Z,18.10
2023-01-20T05:04:07.522Z,18.00
2023-01-20T05:05:07.531Z,17.90
2023-01-20T05:06:07.483Z,18.30
2023-01-20T05:07:07.468Z,17.10
2023-01-20T05:08:07.446Z,16.20
2023-01-20T05:09:07.431Z,16.50
2023-01-20T05:10:07.439Z,16.50
2023-01-20T05:11:07.387Z,16.70
2023-01-20T05:12:07.372Z,16.10
2023-01-20T05:13:07.348Z,16.40
2023-01-20T05:14:07.326Z,15.90
2023-01-20T05:15:07.333Z,16.60
2023-01-20T05:16:07.344Z,15.80
2023-01-20T05:17:07.273Z,17.10
2023-01-20T05:18:07.260Z,16.50
2023-01-20T05:19:07.228Z,16.10
2023-01-20T05:20:07.230Z,15.80
2023-01-20T05:21:07.190Z,16.10
2023-01-20T05:22:07.170Z,15.60
2023-01-20T05:23:07.175Z,15.80
2023-01-20T05:24:07.143Z,16.30
2023-01-20T05:25:07.133Z,15.40
2023-01-20T05:26:07.093Z,16.20
2023-01-20T05:27:07.070Z,16.30
2023-01-20T05:28:07.061Z,17.70
2023-01-20T05:29:07.040Z,17.60
2023-01-20T05:30:07.077Z,17.40
2023-01-20T05:31:07.124Z,17.10
2023-01-20T05:32:06.976Z,16.10
2023-01-20T05:33:06.952Z,15.40
2023-01-20T05:34:06.938Z,14.70
2023-01-20T05:35:06.941Z,13.80
2023-01-20T05:36:06.895Z,14.20
2023-01-20T05:37:06.879Z,14.20
2023-01-20T05:38:06.855Z,14.20
2023-01-20T05:39:06.837Z,14.50
2023-01-20T05:40:06.840Z,14.70
2023-01-20T05:41:06.800Z,14.30
2023-01-20T05:42:06.779Z,14.90
2023-01-20T05:43:06.755Z,16.70
2023-01-20T05:44:06.739Z,15.90
2023-01-20T05:45:06.746Z,16.40
2023-01-20T05:46:06.766Z,16.20
2023-01-20T05:47:06.685Z,14.80
2023-01-20T05:48:06.659Z,15.20
2023-01-20T05:49:06.645Z,13.60
2023-01-20T05:50:06.644Z,12.60
2023-01-20T05:51:06.595Z,12.80
2023-01-20T05:52:06.574Z,12.00
2023-01-20T05:53:06.551Z,10.20
2023-01-20T05:54:06.538Z,10.50
2023-01-20T05:55:06.543Z,10.90
2023-01-20T05:56:06.498Z,10.70
2023-01-20T05:57:06.486Z,10.80
2023-01-20T05:58:06.457Z,8.70
2023-01-20T05:59:06.437Z,8.70
2023-01-20T06:00:08.602Z,9.60
2023-01-20T06:01:06.431Z,9.40
2023-01-20T06:02:06.385Z,9.60
2023-01-20T06:03:06.372Z,8.60
2023-01-20T06:04:06.395Z,9.50
2023-01-20T06:05:06.312Z,9.90
2023-01-20T06:06:06.317Z,12.10
2023-01-20T06:07:06.271Z,12.20
2023-01-20T06:08:06.254Z,12.10
2023-01-20T06:09:06.231Z,11.90
2023-01-20T06:10:06.239Z,10.70
2023-01-20T06:11:06.194Z,11.50
2023-01-20T06:12:06.171Z,10.80
2023-01-20T06:13:06.153Z,10.60
2023-01-20T06:14:06.131Z,10.20
2023-01-20T06:15:06.135Z,10.50
2023-01-20T06:16:07.413Z,11.60
2023-01-20T06:17:07.070Z,11.80
2023-01-20T06:18:06.057Z,15.20
2023-01-20T06:19:06.032Z,27.40
2023-01-20T06:20:06.009Z,26.10
2023-01-20T06:21:06.013Z,18.20
2023-01-20T06:22:05.971Z,20.20
2023-01-20T06:23:05.958Z,16.60
2023-01-20T06:24:05.943Z,16.40
2023-01-20T06:25:05.914Z,17.00
2023-01-20T06:26:05.914Z,18.40
2023-01-20T06:27:05.872Z,17.80
2023-01-20T06:28:05.855Z,14.70
2023-01-20T06:29:05.902Z,13.90
2023-01-20T06:30:05.813Z,13.00
2023-01-20T06:31:05.978Z,12.90
2023-01-20T06:32:05.774Z,12.10
2023-01-20T06:33:05.751Z,10.20
2023-01-20T06:34:05.733Z,10.50
2023-01-20T06:35:05.721Z,9.90
2023-01-20T06:36:05.716Z,9.40
2023-01-20T06:37:05.673Z,9.80
2023-01-20T06:38:05.653Z,8.90
2023-01-20T06:39:05.637Z,9.30
2023-01-20T06:40:05.616Z,9.00
2023-01-20T06:41:05.628Z,9.60
2023-01-20T06:42:05.566Z,9.00
2023-01-20T06:43:05.548Z,9.10
2023-01-20T06:44:05.537Z,9.30
2023-01-20T06:45:05.510Z,10.20
2023-01-20T06:46:05.519Z,10.80
2023-01-20T06:47:05.478Z,11.30
2023-01-20T06:48:05.449Z,11.20
2023-01-20T06:49:05.432Z,11.50
2023-01-20T06:50:05.413Z,11.90
2023-01-20T06:51:05.426Z,12.40
2023-01-20T06:52:05.370Z,12.50
2023-01-20T06:53:05.354Z,12.20
2023-01-20T06:54:05.337Z,12.90
2023-01-20T06:55:05.322Z,12.90
2023-01-20T06:56:05.316Z,13.50
2023-01-20T06:57:05.272Z,13.30
2023-01-20T06:58:05.255Z,13.60
2023-01-20T06:59:05.241Z,14.00
2023-01-20T07:00:05.210Z,14.80
2023-01-20T07:01:05.339Z,13.10
2023-01-20T07:02:05.328Z,14.70
2023-01-20T07:03:05.153Z,14.80
2023-01-20T07:04:05.130Z,13.80
2023-01-20T07:05:05.115Z,13.70
2023-01-20T07:06:05.127Z,14.30
2023-01-20T07:07:05.087Z,14.00
2023-01-20T07:08:05.054Z,14.00
2023-01-20T07:09:05.033Z,14.00
2023-01-20T07:10:05.013Z,14.80
2023-01-20T07:11:05.026Z,14.40
2023-01-20T07:12:04.975Z,15.00
2023-01-20T07:13:04.951Z,14.80
2023-01-20T07:14:04.934Z,15.80
2023-01-20T07:15:04.922Z,15.90
2023-01-20T07:16:04.951Z,15.60
2023-01-20T07:17:04.876Z,16.10
2023-01-20T07:18:04.853Z,16.10
2023-01-20T07:19:04.836Z,15.10
2023-01-20T07:20:04.818Z,14.70
2023-01-20T07:21:04.828Z,15.00
2023-01-20T07:22:04.780Z,13.90
2023-01-20T07:23:04.772Z,14.90
2023-01-20T07:24:04.743Z,15.30
2023-01-20T07:25:04.735Z,15.60
2023-01-20T07:26:04.730Z,14.90
2023-01-20T07:27:04.703Z,15.70
2023-01-20T07:28:04.666Z,16.00
2023-01-20T07:29:04.664Z,16.20
2023-01-20T07:30:04.625Z,16.40
2023-01-20T07:31:04.634Z,15.60
2023-01-20T07:32:04.585Z,16.70
2023-01-20T07:33:04.567Z,17.50
2023-01-20T07:34:04.556Z,17.80
2023-01-20T07:35:04.533Z,17.30
2023-01-20T07:36:04.532Z,16.10
2023-01-20T07:37:04.502Z,15.80
2023-01-20T07:38:04.473Z,16.60
2023-01-20T07:39:04.452Z,17.00
2023-01-20T07:40:04.431Z,17.20
2023-01-20T07:41:05.214Z,17.60
2023-01-20T07:42:05.389Z,17.30
2023-01-20T07:43:04.381Z,17.60
2023-01-20T07:44:04.370Z,17.40
2023-01-20T07:45:04.344Z,16.70
2023-01-20T07:46:04.424Z,15.80
2023-01-20T07:47:04.317Z,14.90
2023-01-20T07:48:04.275Z,14.60
2023-01-20T07:49:04.259Z,14.40
2023-01-20T07:50:04.244Z,14.90
2023-01-20T07:51:04.291Z,14.90
2023-01-20T07:52:04.202Z,13.80
2023-01-20T07:53:04.182Z,13.70
2023-01-20T07:54:04.162Z,13.30
2023-01-20T07:55:04.169Z,14.20
2023-01-20T07:56:04.159Z,14.30
2023-01-20T07:57:04.109Z,13.70
2023-01-20T07:58:04.097Z,13.70
2023-01-20T07:59:04.084Z,13.50
2023-01-20T08:00:04.052Z,13.40
2023-01-20T08:01:04.179Z,13.60
2023-01-20T08:02:04.027Z,13.70
2023-01-20T08:03:04.010Z,14.40
2023-01-20T08:04:03.986Z,13.40
2023-01-20T08:05:04.005Z,11.70
2023-01-20T08:06:03.972Z,12.20
2023-01-20T08:07:03.931Z,12.80
2023-01-20T08:08:03.910Z,12.00
2023-01-20T08:09:03.889Z,12.60
2023-01-20T08:10:03.869Z,13.00
2023-01-20T08:11:03.884Z,12.90
2023-01-20T08:12:03.832Z,12.40
2023-01-20T08:13:03.815Z,13.00
2023-01-20T08:14:03.793Z,13.30
2023-01-20T08:15:03.795Z,12.80
2023-01-20T08:16:03.808Z,12.30
2023-01-20T08:17:03.742Z,13.10
2023-01-20T08:18:03.718Z,13.60
2023-01-20T08:19:03.708Z,13.00
2023-01-20T08:20:03.691Z,13.10
2023-01-20T08:21:03.694Z,13.30
2023-01-20T08:22:03.642Z,13.80
2023-01-20T08:23:03.632Z,14.50
2023-01-20T08:24:03.607Z,15.00
2023-01-20T08:25:03.587Z,15.50
2023-01-20T08:26:03.598Z,15.60
2023-01-20T08:27:03.563Z,14.80
2023-01-20T08:28:05.498Z,15.90
2023-01-20T08:29:04.568Z,15.20
2023-01-20T08:30:03.493Z,15.40
2023-01-20T08:31:03.683Z,15.60
2023-01-20T08:32:03.485Z,15.90
2023-01-20T08:33:03.438Z,16.40
2023-01-20T08:34:03.431Z,16.30
2023-01-20T08:35:03.410Z,16.10
2023-01-20T08:36:03.421Z,16.40
2023-01-20T08:37:03.367Z,15.90
2023-01-20T08:38:03.363Z,16.50
2023-01-20T08:39:03.337Z,16.40
2023-01-20T08:40:03.309Z,15.90
2023-01-20T08:41:03.295Z,17.10
2023-01-20T08:42:03.299Z,16.60
2023-01-20T08:43:03.252Z,16.90
2023-01-20T08:44:03.234Z,16.80
2023-01-20T08:45:03.224Z,16.70
2023-01-20T08:46:03.231Z,16.70
2023-01-20T08:47:03.216Z,16.50
2023-01-20T08:48:03.162Z,16.10
2023-01-20T08:49:03.144Z,17.10
2023-01-20T08:50:03.126Z,17.30
2023-01-20T08:51:03.164Z,16.40
2023-01-20T08:52:03.117Z,17.30
2023-01-20T08:53:03.075Z,18.10
2023-01-20T08:54:03.047Z,17.10
2023-01-20T08:55:03.030Z,16.30
2023-01-20T08:56:03.015Z,17.10
2023-01-20T08:57:03.021Z,15.80
2023-01-20T08:58:02.980Z,16.20
2023-01-20T08:59:02.953Z,15.30
2023-01-20T09:00:02.939Z,14.50
2023-01-20T09:01:02.923Z,14.40
2023-01-20T09:02:02.936Z,13.60
2023-01-20T09:03:02.882Z,13.50
2023-01-20T09:04:06.118Z,13.30
2023-01-20T09:05:03.841Z,13.50
2023-01-20T09:06:02.824Z,12.40
2023-01-20T09:07:02.851Z,11.60
2023-01-20T09:08:02.786Z,11.40
2023-01-20T09:09:04.493Z,11.60
2023-01-20T09:10:03.756Z,11.40
2023-01-20T09:11:02.735Z,11.50
2023-01-20T09:12:02.747Z,11.50
2023-01-20T09:13:02.703Z,10.90
2023-01-20T09:14:02.692Z,10.10
2023-01-20T09:15:04.926Z,9.60
2023-01-20T09:16:03.680Z,9.90
2023-01-20T09:17:02.658Z,9.60
2023-01-20T09:18:02.610Z,9.60
2023-01-20T09:19:02.601Z,9.60
2023-01-20T09:20:02.575Z,8.90
2023-01-20T09:21:02.567Z,9.30
2023-01-20T09:22:02.563Z,9.40
2023-01-20T09:23:02.535Z,9.10
2023-01-20T09:24:02.497Z,9.40
2023-01-20T09:25:02.487Z,9.50
2023-01-20T09:26:02.466Z,9.10
2023-01-20T09:27:02.488Z,9.00
2023-01-20T09:28:02.431Z,9.20
2023-01-20T09:29:02.394Z,9.30
2023-01-20T09:30:02.375Z,9.50
2023-01-20T09:31:02.467Z,9.00
2023-01-20T09:32:02.420Z,9.00
2023-01-20T09:33:02.309Z,8.80
2023-01-20T09:34:02.285Z,9.40
2023-01-20T09:35:02.266Z,9.70
2023-01-20T09:36:02.243Z,10.10
2023-01-20T09:37:02.248Z,9.80
2023-01-20T09:38:02.205Z,10.00
2023-01-20T09:39:02.195Z,9.70
2023-01-20T09:40:02.164Z,9.20
2023-01-20T09:41:02.132Z,9.40
2023-01-20T09:42:02.183Z,8.80
2023-01-20T09:43:02.084Z,9.20
2023-01-20T09:44:02.064Z,9.40
2023-01-20T09:45:02.046Z,9.00
2023-01-20T09:46:02.052Z,8.90
2023-01-20T09:47:02.005Z,8.50
2023-01-20T09:48:02.013Z,8.60
2023-01-20T09:49:01.972Z,8.50
2023-01-20T09:50:01.956Z,8.00
2023-01-20T09:51:01.940Z,7.90
2023-01-20T09:52:01.942Z,7.90
2023-01-20T09:53:01.895Z,7.80
2023-01-20T09:54:01.872Z,7.80
2023-01-20T09:55:01.856Z,7.90
2023-01-20T09:56:01.842Z,8.00
2023-01-20T09:57:01.848Z,8.10
2023-01-20T09:58:02.846Z,8.20
2023-01-20T09:59:01.788Z,8.00
2023-01-20T10:00:01.773Z,7.60
2023-01-20T10:01:01.747Z,7.90
2023-01-20T10:02:01.736Z,8.00
2023-01-20T10:03:01.741Z,7.80
2023-01-20T10:04:04.052Z,8.20
2023-01-20T10:05:01.699Z,8.50
2023-01-20T10:06:01.654Z,8.30
2023-01-20T10:07:01.656Z,8.50
2023-01-20T10:08:01.606Z,8.40
2023-01-20T10:09:05.972Z,8.60
2023-01-20T10:10:03.565Z,8.70
2023-01-20T10:11:01.552Z,9.00
2023-01-20T10:12:01.552Z,9.00
2023-01-20T10:13:01.554Z,8.60
2023-01-20T10:14:01.490Z,7.50
2023-01-20T10:15:01.508Z,7.90
2023-01-20T10:16:01.475Z,8.10
2023-01-20T10:17:01.469Z,7.90
2023-01-20T10:18:01.406Z,8.90
2023-01-20T10:19:01.391Z,8.90
2023-01-20T10:20:01.364Z,9.20
2023-01-20T10:21:01.353Z,8.50
2023-01-20T10:22:01.356Z,9.00
2023-01-20T10:23:01.336Z,9.00
2023-01-20T10:24:01.286Z,9.40
2023-01-20T10:25:01.274Z,9.50
2023-01-20T10:26:01.245Z,9.10
2023-01-20T10:27:01.259Z,9.00
2023-01-20T10:28:01.233Z,9.30
2023-01-20T10:29:01.199Z,9.00
2023-01-20T10:30:01.173Z,9.00
2023-01-20T10:31:01.251Z,8.70
2023-01-20T10:32:01.169Z,8.60
2023-01-20T10:33:01.102Z,8.80
2023-01-20T10:34:01.084Z,8.60
2023-01-20T10:35:01.060Z,9.60
2023-01-20T10:36:01.033Z,8.90
2023-01-20T10:37:01.030Z,10.00
2023-01-20T10:38:00.990Z,10.10
2023-01-20T10:39:00.965Z,9.50
2023-01-20T10:40:00.955Z,10.80
2023-01-20T10:41:00.924Z,11.70
2023-01-20T10:42:00.920Z,11.20
2023-01-20T10:43:00.884Z,11.70
2023-01-20T10:44:00.876Z,11.20
2023-01-20T10:45:00.847Z,11.70
2023-01-20T10:46:00.815Z,11.70
2023-01-20T10:47:00.816Z,11.70
2023-01-20T10:48:00.770Z,12.10
2023-01-20T10:49:00.752Z,11.90
2023-01-20T10:50:00.721Z,11.80
2023-01-20T10:51:00.706Z,12.10
2023-01-20T10:52:00.706Z,11.70
2023-01-20T10:53:00.671Z,12.10
2023-01-20T10:54:00.639Z,11.80
2023-01-20T10:55:00.623Z,10.40
2023-01-20T10:56:00.598Z,12.00
2023-01-20T10:57:00.601Z,10.60
2023-01-20T10:58:00.569Z,10.20
2023-01-20T10:59:00.539Z,10.00
2023-01-20T11:00:00.538Z,12.00
2023-01-20T11:01:00.499Z,12.80
2023-01-20T11:02:11.349Z,12.40
2023-01-20T11:03:02.481Z,11.60
2023-01-20T11:04:00.444Z,11.20
2023-01-20T11:05:00.455Z,10.20
2023-01-20T11:06:00.400Z,10.70
2023-01-20T11:07:00.424Z,10.10
2023-01-20T11:08:00.369Z,10.30
2023-01-20T11:09:00.340Z,10.80
2023-01-20T11:10:00.323Z,11.20
2023-01-20T11:11:00.298Z,10.40
2023-01-20T11:12:00.306Z,9.70
2023-01-20T11:13:00.264Z,9.10
2023-01-20T11:14:00.245Z,9.40
2023-01-20T11:15:00.240Z,9.70
2023-01-20T11:16:00.240Z,9.50
2023-01-20T11:17:00.214Z,9.60
2023-01-20T11:18:00.168Z,9.10
2023-01-20T11:19:00.146Z,8.50
2023-01-20T11:20:00.166Z,9.40
2023-01-20T11:21:00.138Z,10.70
2023-01-20T11:22:00.120Z,12.30
2023-01-20T11:23:00.109Z,13.10
2023-01-20T11:24:00.063Z,13.20
2023-01-20T11:25:00.036Z,13.80
2023-01-20T11:26:00.057Z,14.60
2023-01-20T11:27:00.032Z,13.70
2023-01-20T11:27:59.983Z,13.70
2023-01-20T11:28:59.980Z,14.40
2023-01-20T11:29:59.949Z,14.30
2023-01-20T11:31:00.008Z,14.10
2023-01-20T11:31:59.987Z,14.20
2023-01-20T11:32:59.911Z,14.00
2023-01-20T11:33:59.876Z,12.40
2023-01-20T11:34:59.870Z,12.90
2023-01-20T11:35:59.846Z,12.50
2023-01-20T11:36:59.863Z,13.10
2023-01-20T11:37:59.807Z,12.30
2023-01-20T11:38:59.798Z,13.20
2023-01-20T11:39:59.796Z,12.70
2023-01-20T11:40:59.753Z,12.60
2023-01-20T11:41:59.763Z,13.10
2023-01-20T11:42:59.719Z,13.10
2023-01-20T11:43:59.699Z,13.40
2023-01-20T11:45:15.270Z,13.70
2023-01-20T11:46:01.666Z,12.70
2023-01-20T11:46:59.658Z,13.20
2023-01-20T11:47:59.672Z,14.10
2023-01-20T11:48:59.617Z,14.80
2023-01-20T11:49:59.600Z,14.60
2023-01-20T11:50:59.583Z,15.40
2023-01-20T11:51:59.619Z,15.60
2023-01-20T11:52:59.576Z,15.50
2023-01-20T11:53:59.535Z,15.20
2023-01-20T11:54:59.522Z,14.30
2023-01-20T11:55:59.511Z,14.20
2023-01-20T11:56:59.479Z,15.60
2023-01-20T11:57:59.490Z,14.20
2023-01-20T11:58:59.450Z,14.40
2023-01-20T11:59:59.428Z,14.10
2023-01-20T12:00:59.410Z,13.80
2023-01-20T12:01:59.416Z,13.80
2023-01-20T12:02:59.398Z,13.40
2023-01-20T12:03:59.414Z,13.70
2023-01-20T12:04:59.337Z,13.70
2023-01-20T12:05:59.333Z,13.00
2023-01-20T12:06:59.301Z,12.60
2023-01-20T12:07:59.313Z,13.40
2023-01-20T12:08:59.279Z,13.40
2023-01-20T12:09:59.375Z,14.10
2023-01-20T12:10:59.233Z,14.10
2023-01-20T12:11:59.216Z,14.80
2023-01-20T12:12:59.222Z,13.80
2023-01-20T12:13:59.179Z,12.30
2023-01-20T12:14:59.154Z,12.40
2023-01-20T12:15:59.203Z,13.10
2023-01-20T12:16:59.127Z,11.30
2023-01-20T12:17:59.130Z,11.20
2023-01-20T12:19:02.360Z,12.10
2023-01-20T12:20:00.068Z,11.80
2023-01-20T12:20:59.054Z,12.00
2023-01-20T12:21:59.034Z,12.70
2023-01-20T12:22:59.059Z,13.00
2023-01-20T12:23:59.000Z,12.50
2023-01-20T12:24:58.984Z,12.90
2023-01-20T12:25:58.967Z,13.20
2023-01-20T12:26:58.948Z,12.60
2023-01-20T12:27:58.960Z,13.00
2023-01-20T12:28:58.912Z,13.00
2023-01-20T12:29:58.891Z,13.10
2023-01-20T12:30:58.961Z,13.50
2023-01-20T12:31:58.870Z,13.30
2023-01-20T12:32:58.863Z,13.00
2023-01-20T12:33:58.848Z,12.70
2023-01-20T12:34:58.801Z,12.10
2023-01-20T12:35:58.786Z,11.40
2023-01-20T12:36:58.763Z,11.60
2023-01-20T12:37:58.768Z,11.50
2023-01-20T12:38:58.734Z,11.80
2023-01-20T12:39:58.713Z,11.60
2023-01-20T12:40:58.698Z,12.00
2023-01-20T12:41:58.696Z,12.10
2023-01-20T12:42:58.687Z,11.70
2023-01-20T12:43:58.639Z,10.90
2023-01-20T12:44:58.633Z,10.70
2023-01-20T12:45:58.620Z,10.60
2023-01-20T12:46:58.585Z,11.00
2023-01-20T12:47:58.701Z,10.50
2023-01-20T12:48:58.553Z,10.40
2023-01-20T12:49:58.527Z,10.70
2023-01-20T12:50:58.515Z,10.60
2023-01-20T12:51:58.498Z,10.70
2023-01-20T12:52:58.504Z,10.70
2023-01-20T12:53:58.454Z,11.20
2023-01-20T12:54:58.436Z,11.40
2023-01-20T12:55:58.430Z,11.20